Impacts METAR Board INFO
IDs:

KSLC - Salt Lake City Intl, UT, US

Updated at: 1523 UTC 19 Jan 2018
Potential Impact None Slight Moderate High
Time19/03Z 19/04Z 19/05Z 19/06Z 19/07Z 19/08Z 19/09Z 19/10Z 19/11Z 19/12Z 19/13Z 19/14Z 19/15Z
VIS10 10 10 10 10 10 10 10 10 10 10 10 10
CIG150 170 180 240 240 250 250 -- -- 150 150 150 180
CoverOVCOVCBKNBKNBKNBKNBKNCLRSCTBKNBKNBKNBKN
FltCatVFRVFRVFRVFRVFRVFRVFRVFRVFRVFRVFRVFRVFR
WX--------------------------
WDir110150130140170180170160160180180200180
WSpd7 9 7 10 18 19 22 18 16 13 14 13 15
WGst-- -- -- -- 26 28 29 24 23 21 23 19 23
Raw hourly METARs
KSLC 190254Z 11007KT 10SM FEW090 BKN150 OVC240 09/00 A2994 RMK AO2 SLP130 T00940000 58014
KSLC 190354Z 15009KT 10SM FEW100 BKN170 OVC220 11/M02 A2993 RMK AO2 SLP120 T01111017
KSLC 190454Z COR 13007KT 10SM FEW090 BKN180 BKN230 11/M02 A2992 RMK AO2 SLP113 T01111017
KSLC 190554Z 14010KT 10SM FEW110 SCT160 BKN240 13/M02 A2990 RMK AO2 SLP102 T01281022 10133 20050 58012
KSLC 190654Z 17018G26KT 10SM FEW110 SCT160 BKN240 13/M02 A2988 RMK AO2 PK WND 18026/0649 SLP092 T01281022 401330000
KSLC 190754Z 18019G28KT 10SM FEW110 SCT150 BKN250 13/M02 A2985 RMK AO2 PK WND 18029/0713 SLP082 T01331022
KSLC 190854Z 17022G29KT 10SM SCT150 BKN250 13/M02 A2982 RMK AO2 PK WND 16030/0844 SLP072 T01331022 58022
KSLC 190954Z 16018G24KT 10SM CLR 13/M02 A2982 RMK AO2 PK WND 16029/0916 SLP071 T01331022
KSLC 191054Z 16016G23KT 10SM SCT110 SCT150 13/M02 A2980 RMK AO2 PK WND 16026/1030 SLP067 T01331022
KSLC 191154Z 18013G21KT 10SM SCT110 BKN150 14/M02 A2977 RMK AO2 SLP057 T01391022 10139 20117 58016
KSLC 191254Z COR 18014G23KT 10SM SCT130 BKN150 14/M02 A2977 RMK AO2 SLP055 T01391017
KSLC 191354Z 20013G19KT 10SM SCT130 BKN150 14/M02 A2978 RMK AO2 SLP064 T01391017
KSLC 191454Z 18015G23KT 10SM FEW085 BKN180 BKN220 14/M02 A2978 RMK AO2 PK WND 19027/1431 SLP059 ACSL DSNT S T01391017 50002